createdAt,value
2022-09-25T00:01:34.157Z,13.15
2022-09-25T00:04:02.967Z,15.15
2022-09-25T00:06:33.405Z,15.25
2022-09-25T00:09:02.388Z,14.58
2022-09-25T00:11:32.836Z,14.18
2022-09-25T00:14:02.829Z,12.37
2022-09-25T00:16:33.093Z,12.28
2022-09-25T00:19:19.446Z,12.35
2022-09-25T00:21:50.175Z,11.80
2022-09-25T00:24:18.734Z,11.48
2022-09-25T00:26:47.266Z,11.40
2022-09-25T00:29:19.223Z,11.33
2022-09-25T00:31:47.760Z,11.80
2022-09-25T00:34:16.313Z,11.33
2022-09-25T00:36:44.915Z,11.63
2022-09-25T00:39:13.468Z,10.53
2022-09-25T00:41:42.090Z,11.05
2022-09-25T00:44:42.240Z,10.08
2022-09-25T00:47:13.826Z,9.80
2022-09-25T00:49:43.203Z,9.80
2022-09-25T00:52:14.085Z,10.20
2022-09-25T00:54:52.321Z,9.18
2022-09-25T00:57:25.723Z,9.33
2022-09-25T00:59:57.305Z,9.08
2022-09-25T01:02:28.983Z,9.20
2022-09-25T01:05:03.630Z,10.10
2022-09-25T01:07:34.816Z,9.98
2022-09-25T01:10:04.702Z,9.40
2022-09-25T01:12:33.596Z,9.55
2022-09-25T01:15:02.220Z,9.13
2022-09-25T01:17:45.535Z,9.03
2022-09-25T01:20:35.093Z,8.95
2022-09-25T01:23:29.139Z,8.33
2022-09-25T01:26:16.155Z,7.92
2022-09-25T01:28:59.840Z,7.25
2022-09-25T01:31:49.299Z,6.58
2022-09-25T01:34:20.920Z,6.15
2022-09-25T01:36:56.059Z,5.37
2022-09-25T01:39:32.221Z,5.50
2022-09-25T01:42:04.191Z,5.20
2022-09-25T01:44:36.027Z,5.73
2022-09-25T01:47:10.253Z,5.22
2022-09-25T01:49:44.777Z,5.30
2022-09-25T01:52:16.405Z,5.35
2022-09-25T01:54:51.822Z,4.87
2022-09-25T01:57:26.399Z,4.10
2022-09-25T02:00:03.917Z,4.00
2022-09-25T02:02:35.745Z,3.50
2022-09-25T02:05:10.311Z,3.37
2022-09-25T02:07:42.114Z,3.22
2022-09-25T02:10:19.580Z,3.50
2022-09-25T02:12:51.201Z,3.40
2022-09-25T02:15:22.886Z,3.50
2022-09-25T02:18:18.050Z,3.98
2022-09-25T02:20:50.302Z,3.47
2022-09-25T02:23:24.667Z,3.40
2022-09-25T02:26:11.917Z,4.35
2022-09-25T02:28:40.453Z,4.28
2022-09-25T02:31:12.431Z,3.60
2022-09-25T02:33:41.183Z,4.15
2022-09-25T02:36:23.071Z,3.92
2022-09-25T02:38:54.209Z,4.30
2022-09-25T02:41:34.714Z,4.22
2022-09-25T02:44:21.207Z,4.55
2022-09-25T02:46:52.839Z,5.20
2022-09-25T02:49:33.378Z,5.00
2022-09-25T02:52:07.879Z,5.28
2022-09-25T02:54:44.050Z,5.20
2022-09-25T02:57:18.479Z,5.03
2022-09-25T02:59:50.015Z,4.90
2022-09-25T03:02:19.958Z,4.85
2022-09-25T03:04:50.851Z,4.70
2022-09-25T03:07:20.737Z,4.55
2022-09-25T03:09:51.996Z,4.60
2022-09-25T03:12:20.596Z,4.22
2022-09-25T03:14:49.135Z,4.35
2022-09-25T03:17:17.795Z,3.92
2022-09-25T03:19:46.326Z,3.62
2022-09-25T03:22:14.857Z,3.10
2022-09-25T03:24:43.407Z,3.85
2022-09-25T03:27:11.944Z,3.20
2022-09-25T03:29:40.469Z,2.65
2022-09-25T03:32:10.085Z,2.33
2022-09-25T03:34:38.612Z,2.80
2022-09-25T03:37:07.180Z,2.47
2022-09-25T03:39:35.716Z,2.42
2022-09-25T03:42:05.702Z,2.25
2022-09-25T03:44:34.289Z,2.20
2022-09-25T03:47:02.800Z,2.10
2022-09-25T03:49:31.343Z,2.20
2022-09-25T03:52:00.171Z,2.20
2022-09-25T03:54:28.692Z,2.20
2022-09-25T03:56:57.804Z,2.25
2022-09-25T03:59:26.784Z,2.27
2022-09-25T04:01:55.321Z,2.27
2022-09-25T04:04:23.935Z,2.05
2022-09-25T04:06:52.463Z,2.47
2022-09-25T04:09:21.001Z,1.90
2022-09-25T04:11:50.066Z,1.80
2022-09-25T04:14:18.664Z,2.05
2022-09-25T04:16:47.295Z,2.30
2022-09-25T04:19:16.600Z,1.87
2022-09-25T04:21:45.197Z,1.92
2022-09-25T04:24:21.510Z,2.20
2022-09-25T04:26:51.725Z,2.22
2022-09-25T04:29:21.164Z,1.77
2022-09-25T04:31:51.451Z,2.10
2022-09-25T04:34:19.999Z,1.77
2022-09-25T04:36:48.533Z,2.27
2022-09-25T04:39:18.699Z,2.50
2022-09-25T04:41:47.689Z,2.50
2022-09-25T04:44:16.558Z,2.10
2022-09-25T04:46:45.176Z,2.20
2022-09-25T04:49:13.789Z,2.22
2022-09-25T04:51:42.337Z,2.17
2022-09-25T04:54:10.867Z,2.10
2022-09-25T04:56:39.324Z,2.40
2022-09-25T04:59:07.855Z,2.62
2022-09-25T05:01:36.475Z,2.80
2022-09-25T05:04:08.658Z,2.60
2022-09-25T05:06:35.371Z,3.15
2022-09-25T05:09:03.940Z,3.10
2022-09-25T05:11:32.465Z,2.60
2022-09-25T05:14:01.276Z,3.08
2022-09-25T05:16:30.760Z,3.00
2022-09-25T05:18:59.569Z,2.92
2022-09-25T05:21:28.184Z,3.00
2022-09-25T05:23:56.811Z,2.70
2022-09-25T05:26:25.572Z,3.10
2022-09-25T05:28:54.114Z,3.35
2022-09-25T05:31:22.783Z,3.25
2022-09-25T05:33:51.620Z,3.22
2022-09-25T05:36:20.291Z,2.37
2022-09-25T05:38:48.830Z,2.67
2022-09-25T05:41:17.722Z,2.87
2022-09-25T05:43:47.604Z,2.92
2022-09-25T05:46:16.566Z,3.17
2022-09-25T05:48:45.064Z,3.20
2022-09-25T05:51:13.602Z,3.10
2022-09-25T05:53:42.324Z,2.90
2022-09-25T05:56:12.227Z,2.45
2022-09-25T05:58:40.761Z,2.45
2022-09-25T06:01:09.369Z,2.10
2022-09-25T06:03:37.908Z,2.15
2022-09-25T06:06:06.904Z,2.17
2022-09-25T06:08:38.188Z,2.00
2022-09-25T06:11:08.152Z,2.30
2022-09-25T06:13:36.965Z,2.75
2022-09-25T06:16:07.869Z,1.77
2022-09-25T06:18:37.804Z,1.87
2022-09-25T06:21:06.707Z,2.55
2022-09-25T06:23:35.247Z,1.67
2022-09-25T06:26:05.231Z,2.02
2022-09-25T06:28:34.402Z,1.90
2022-09-25T06:31:04.530Z,2.00
2022-09-25T06:33:33.781Z,1.65
2022-09-25T06:36:02.433Z,2.10
2022-09-25T06:38:32.732Z,1.90
2022-09-25T06:41:01.750Z,2.05
2022-09-25T06:43:30.425Z,2.00
2022-09-25T06:46:03.072Z,1.55
2022-09-25T06:48:32.292Z,2.00
2022-09-25T06:51:01.900Z,2.37
2022-09-25T06:53:30.805Z,1.92
2022-09-25T06:56:02.727Z,1.50
2022-09-25T06:58:31.568Z,1.77
2022-09-25T07:01:00.116Z,1.65
2022-09-25T07:03:47.372Z,1.82
2022-09-25T07:06:20.006Z,1.80
2022-09-25T07:08:49.188Z,2.27
2022-09-25T07:11:22.784Z,1.95
2022-09-25T07:13:52.190Z,2.10
2022-09-25T07:16:20.961Z,1.75
2022-09-25T07:18:50.739Z,2.05
2022-09-25T07:21:19.832Z,1.98
2022-09-25T07:23:51.613Z,1.90
2022-09-25T07:26:23.305Z,2.40
2022-09-25T07:28:56.102Z,2.00
2022-09-25T07:33:51.781Z,2.25
2022-09-25T07:36:20.537Z,1.82
2022-09-25T07:38:53.391Z,2.50
2022-09-25T07:46:31.350Z,2.40
2022-09-25T07:49:00.816Z,2.50
2022-09-25T07:51:29.361Z,2.72
2022-09-25T07:53:58.770Z,2.40
2022-09-25T07:56:27.751Z,2.55
2022-09-25T07:58:56.372Z,2.90
2022-09-25T08:01:25.005Z,2.90
2022-09-25T08:03:54.010Z,2.83
2022-09-25T08:06:22.650Z,2.30
2022-09-25T08:08:51.240Z,2.65
2022-09-25T08:11:19.941Z,2.47
2022-09-25T08:13:49.389Z,3.15
2022-09-25T08:16:21.119Z,2.72
2022-09-25T08:18:50.677Z,2.80
2022-09-25T08:21:21.446Z,2.60
2022-09-25T08:23:52.338Z,2.60
2022-09-25T08:26:22.392Z,2.87
2022-09-25T08:28:51.970Z,2.58
2022-09-25T08:31:20.638Z,2.35
2022-09-25T08:33:50.768Z,2.60
2022-09-25T08:36:19.746Z,2.37
2022-09-25T08:38:48.524Z,2.75
2022-09-25T08:41:28.789Z,2.37
2022-09-25T08:44:09.286Z,2.40
2022-09-25T08:47:07.588Z,1.98
2022-09-25T08:49:42.206Z,2.37
2022-09-25T08:52:13.880Z,2.47
2022-09-25T08:54:45.069Z,2.42
2022-09-25T08:57:31.353Z,2.83
2022-09-25T09:00:03.163Z,2.62
2022-09-25T09:02:46.987Z,2.95
2022-09-25T09:05:30.996Z,2.55
2022-09-25T09:08:08.449Z,2.45
2022-09-25T09:10:40.063Z,2.62
2022-09-25T09:13:37.153Z,3.20
2022-09-25T09:16:08.930Z,3.12
2022-09-25T09:18:40.245Z,3.70
2022-09-25T09:21:22.460Z,3.35
2022-09-25T09:24:08.997Z,3.00
2022-09-25T09:27:04.467Z,3.65
2022-09-25T09:29:45.258Z,2.75
2022-09-25T09:32:33.253Z,2.98
2022-09-25T09:35:20.644Z,2.33
2022-09-25T09:38:28.247Z,1.75
2022-09-25T09:41:09.975Z,1.80
2022-09-25T09:43:57.170Z,1.30
2022-09-25T10:20:51.483Z,0.90
2022-09-25T10:23:24.294Z,2.02
2022-09-25T10:28:23.107Z,1.00
2022-09-25T10:50:57.724Z,1.00
2022-09-25T10:53:28.838Z,2.00
2022-09-25T10:56:08.290Z,2.27
2022-09-25T10:58:40.972Z,2.08
2022-09-25T11:01:12.161Z,2.20
2022-09-25T11:03:47.746Z,1.90
2022-09-25T11:53:36.353Z,1.85
2022-09-25T15:18:49.027Z,0.60
2022-09-25T15:21:18.770Z,0.68
2022-09-25T15:23:47.309Z,0.80
2022-09-25T15:26:18.769Z,0.70
2022-09-25T15:28:47.110Z,0.75
2022-09-25T15:31:15.416Z,0.88
2022-09-25T15:33:45.476Z,0.68
2022-09-25T15:36:17.794Z,0.75
2022-09-25T15:38:47.534Z,0.95
2022-09-25T15:41:15.941Z,0.72
2022-09-25T15:43:44.229Z,0.70
2022-09-25T15:46:30.132Z,0.70
2022-09-25T15:48:59.238Z,0.88
2022-09-25T15:51:33.340Z,1.35
2022-09-25T15:54:02.925Z,0.55
2022-09-25T15:56:32.667Z,0.72
2022-09-25T15:59:02.408Z,0.60
2022-09-25T16:01:49.241Z,0.53
2022-09-25T16:04:38.968Z,0.60
2022-09-25T16:07:26.221Z,0.57
2022-09-25T16:09:56.100Z,0.70
2022-09-25T16:12:29.594Z,0.70
2022-09-25T16:14:58.697Z,0.70
2022-09-25T16:17:28.443Z,0.95
2022-09-25T16:20:00.855Z,0.65
2022-09-25T16:22:31.690Z,1.10
2022-09-25T16:25:00.735Z,0.90
2022-09-25T16:27:30.477Z,0.90
2022-09-25T16:30:03.618Z,0.70
2022-09-25T16:32:30.355Z,0.93
2022-09-25T16:35:02.020Z,0.68
2022-09-25T16:37:33.635Z,0.80
2022-09-25T16:40:11.519Z,0.62
2022-09-25T16:42:40.754Z,0.80
2022-09-25T16:45:15.804Z,0.62
2022-09-25T16:47:49.201Z,0.88
2022-09-25T16:50:16.682Z,0.87
2022-09-25T16:52:45.565Z,1.10
2022-09-25T16:55:20.527Z,0.53
2022-09-25T16:57:49.082Z,0.90
2022-09-25T17:00:20.688Z,0.90
2022-09-25T17:02:49.257Z,1.27
2022-09-25T17:05:25.741Z,2.02
2022-09-25T17:07:57.339Z,1.05
2022-09-25T17:10:32.059Z,0.80
2022-09-25T17:13:02.655Z,0.57
2022-09-25T17:15:34.422Z,0.42
2022-09-25T17:18:04.172Z,0.55
2022-09-25T17:20:32.797Z,0.57
2022-09-25T17:23:01.863Z,0.57
2022-09-25T17:25:47.909Z,0.62
2022-09-25T17:28:17.298Z,0.50
2022-09-25T17:30:46.197Z,0.80
2022-09-25T17:33:20.317Z,0.90
2022-09-25T17:36:06.400Z,0.98
2022-09-25T17:38:35.497Z,3.35
2022-09-25T17:41:07.004Z,0.90
2022-09-25T17:43:35.611Z,1.12
2022-09-25T17:46:04.993Z,0.80
2022-09-25T17:48:33.939Z,1.20
2022-09-25T17:51:04.679Z,0.90
2022-09-25T17:53:34.373Z,0.70
2022-09-25T17:56:03.379Z,0.90
2022-09-25T17:58:32.596Z,0.70
2022-09-25T18:01:04.238Z,0.80
2022-09-25T18:03:32.991Z,0.93
2022-09-25T18:06:01.558Z,0.90
2022-09-25T18:08:30.951Z,0.65
2022-09-25T18:10:59.830Z,0.95
2022-09-25T18:13:28.399Z,0.90
2022-09-25T18:15:59.929Z,5.67
2022-09-25T18:18:33.042Z,1.55
2022-09-25T18:21:19.204Z,1.00
2022-09-25T18:23:47.813Z,1.17
2022-09-25T18:26:16.527Z,1.05
2022-09-25T18:28:45.065Z,1.25
2022-09-25T18:31:14.121Z,1.00
2022-09-25T18:33:47.158Z,1.00
2022-09-25T18:36:13.329Z,1.02
2022-09-25T18:38:41.866Z,1.05
2022-09-25T18:41:10.408Z,1.20
2022-09-25T18:43:38.967Z,1.00
2022-09-25T18:46:07.626Z,1.40
2022-09-25T18:48:37.382Z,1.40
2022-09-25T18:51:07.122Z,1.40
2022-09-25T18:53:35.663Z,1.40
2022-09-25T18:56:04.227Z,1.35
2022-09-25T18:58:32.763Z,1.40
2022-09-25T19:01:01.486Z,1.20
2022-09-25T19:03:30.274Z,1.40
2022-09-25T19:06:02.764Z,1.47
2022-09-25T19:08:32.335Z,1.75
2022-09-25T19:11:01.140Z,1.57
2022-09-25T19:13:30.190Z,1.85
2022-09-25T19:15:58.923Z,1.40
2022-09-25T19:18:27.494Z,1.60
2022-09-25T19:20:56.093Z,1.98
2022-09-25T19:23:26.486Z,1.70
2022-09-25T19:26:02.049Z,1.75
2022-09-25T19:28:32.233Z,1.75
2022-09-25T19:31:06.525Z,1.77
2022-09-25T19:33:37.677Z,1.72
2022-09-25T19:36:09.347Z,2.10
2022-09-25T19:38:40.087Z,2.10
2022-09-25T19:41:24.860Z,2.35
2022-09-25T19:43:57.541Z,2.05
2022-09-25T19:46:27.945Z,2.10
2022-09-25T19:49:04.538Z,2.15
2022-09-25T19:51:33.549Z,2.12
2022-09-25T19:54:02.087Z,2.52
2022-09-25T19:56:30.617Z,2.37
2022-09-25T19:58:59.164Z,1.98
2022-09-25T20:01:30.241Z,2.42
2022-09-25T20:03:58.897Z,2.20
2022-09-25T20:06:28.317Z,1.90
2022-09-25T20:09:03.590Z,2.47
2022-09-25T20:11:34.255Z,2.33
2022-09-25T20:14:04.804Z,2.58
2022-09-25T20:16:33.661Z,2.80
2022-09-25T20:19:04.592Z,2.70
2022-09-25T20:21:38.181Z,2.47
2022-09-25T20:24:08.749Z,2.40
2022-09-25T20:26:38.024Z,2.30
2022-09-25T20:29:12.802Z,1.80
2022-09-25T20:31:43.309Z,2.10
2022-09-25T20:34:17.603Z,2.20
2022-09-25T20:36:47.015Z,2.08
2022-09-25T20:39:20.461Z,2.47
2022-09-25T20:41:45.843Z,2.50
2022-09-25T20:44:14.423Z,2.20
2022-09-25T20:46:43.089Z,2.60
2022-09-25T20:49:13.129Z,2.42
2022-09-25T20:51:42.107Z,2.37
2022-09-25T20:54:11.382Z,2.27
2022-09-25T20:56:44.759Z,2.20
2022-09-25T20:59:15.328Z,2.52
2022-09-25T21:01:43.926Z,2.50
2022-09-25T21:04:12.619Z,2.33
2022-09-25T21:06:42.761Z,2.60
2022-09-25T21:09:17.243Z,2.83
2022-09-25T21:11:45.781Z,2.62
2022-09-25T21:14:19.725Z,2.55
2022-09-25T21:16:49.445Z,3.00
2022-09-25T21:19:19.839Z,3.20
2022-09-25T21:21:49.137Z,3.62
2022-09-25T21:24:20.213Z,3.00
2022-09-25T21:26:49.816Z,2.77
2022-09-25T21:29:18.675Z,2.58
2022-09-25T21:31:50.356Z,2.52
2022-09-25T21:34:18.110Z,2.33
2022-09-25T21:36:47.088Z,2.47
2022-09-25T21:39:16.070Z,2.92
2022-09-25T21:41:45.010Z,2.80
2022-09-25T21:44:15.497Z,2.72
2022-09-25T21:46:44.580Z,3.08
2022-09-25T21:49:21.601Z,2.87
2022-09-25T21:51:50.956Z,2.90
2022-09-25T21:54:19.574Z,3.27
2022-09-25T21:56:49.064Z,2.40
2022-09-25T21:59:18.225Z,2.08
2022-09-25T22:01:46.800Z,2.30
2022-09-25T22:04:16.034Z,1.98
2022-09-25T22:06:47.393Z,1.90
2022-09-25T22:09:18.994Z,2.00
2022-09-25T22:11:48.269Z,2.10
2022-09-25T22:14:17.139Z,1.87
2022-09-25T22:16:48.619Z,2.22
2022-09-25T22:19:20.349Z,2.02
2022-09-25T22:21:50.642Z,1.70
2022-09-25T22:24:19.912Z,1.95
2022-09-25T22:26:51.338Z,1.90
2022-09-25T22:29:21.024Z,2.05
2022-09-25T22:31:49.570Z,2.00
2022-09-25T22:34:24.140Z,2.10
2022-09-25T22:36:58.628Z,2.20
2022-09-25T22:39:23.905Z,2.15
2022-09-25T22:41:53.495Z,2.25
2022-09-25T22:44:22.489Z,1.67
2022-09-25T22:46:51.131Z,1.65
2022-09-25T22:49:19.679Z,2.10
2022-09-25T22:51:48.349Z,1.85
2022-09-25T22:54:17.639Z,2.30
2022-09-25T22:56:46.248Z,2.15
2022-09-25T22:59:18.552Z,2.58
2022-09-25T23:01:50.280Z,2.47
2022-09-25T23:04:22.220Z,3.50
2022-09-25T23:06:51.099Z,2.77
2022-09-25T23:09:22.368Z,2.90
2022-09-25T23:11:50.920Z,2.85
2022-09-25T23:14:25.253Z,3.02
2022-09-25T23:16:55.106Z,3.22
2022-09-25T23:19:24.675Z,2.65
2022-09-25T23:21:54.690Z,2.98
2022-09-25T23:24:24.555Z,2.30
2022-09-25T23:26:54.090Z,3.05
2022-09-25T23:29:23.667Z,2.58
2022-09-25T23:31:52.854Z,2.75
2022-09-25T23:34:21.599Z,2.60
2022-09-25T23:36:50.136Z,2.62
2022-09-25T23:39:20.904Z,2.70
2022-09-25T23:41:49.514Z,2.72
2022-09-25T23:44:18.117Z,2.72
2022-09-25T23:46:46.751Z,2.42
2022-09-25T23:49:15.987Z,2.80
2022-09-25T23:51:46.149Z,3.10
2022-09-25T23:54:14.845Z,2.83
2022-09-25T23:56:43.825Z,2.80
2022-09-25T23:59:13.782Z,2.92
